»·PEaware :: N972TB RBG-60OR

N972TB :: RBG-60OR

FLIGHT INFORMATION

Flight Status: Arrived
Operator: Privately registered:
United States
More flights under this callsign
Pilot: Justin A. (23118)
Aircraft: CESSNA 172 SKYHAWK
(C172)
More flights by this aircraft type
Origin: RBG
Destination: 60OR Whitaker
United States
More flights between these airports :: More routes between these airports
Route: +RBG
File this flight plan on PilotEdge
Remarks:
Altitude:
(Current/Filed)
10,000ft
Speed:
(Current/Filed)
110kts
Departed: 18-May-19 07:28 PM
Arrived: 18-May-19 08:04 PM
Distance/Time
Traveled:
Not Available
Distance/Time
To Go:
Arrived

Flight Plot

Page will automatically refresh every two minutes.

Flight plan parsing failed; only flown route is shown


Map Options




Map Legend


Flown Route
Filed Route
Departure Airport
Arrival Airport
Navaid (VOR, NDB)
Fix

Horizontal Profiles

Position Reports

Time Latitude Longitude Heading Altitude Ground
Speed
18-May-19 19:26 42.676808 -122.360894 271 9951ft 129kts
18-May-19 19:28 42.697309 -122.399981 318 9950ft 146kts
18-May-19 19:29 42.726444 -122.437079 295 9950ft 140kts
18-May-19 19:30 42.748670 -122.480932 295 9948ft 141kts
18-May-19 19:31 42.771011 -122.525196 295 9945ft 141kts
18-May-19 19:32 42.793280 -122.569372 295 9945ft 141kts
18-May-19 19:33 42.815553 -122.613691 295 9945ft 141kts
18-May-19 19:34 42.837810 -122.657965 294 9958ft 141kts
18-May-19 19:35 42.859841 -122.701819 294 9958ft 139kts
18-May-19 19:36 42.881619 -122.745303 294 9958ft 138kts
18-May-19 19:37 42.903394 -122.788838 294 9959ft 139kts
18-May-19 19:38 42.925229 -122.832553 294 9959ft 139kts
18-May-19 19:39 42.947031 -122.876275 294 9954ft 139kts
18-May-19 19:40 42.968882 -122.920142 294 9953ft 139kts
18-May-19 19:41 42.990657 -122.963928 294 9954ft 139kts
18-May-19 19:42 43.012491 -123.007848 294 9954ft 139kts
18-May-19 19:43 43.034346 -123.051912 294 9954ft 140kts
18-May-19 19:44 43.056166 -123.095985 294 9955ft 139kts
18-May-19 19:44 43.074369 -123.132811 294 9956ft 140kts
18-May-19 19:46 43.099861 -123.184445 294 9957ft 140kts
18-May-19 19:47 43.119581 -123.224427 294 9950ft 138kts
18-May-19 19:47 43.137436 -123.260727 294 9950ft 137kts
18-May-19 19:49 43.161648 -123.309937 293 9950ft 130kts
18-May-19 19:50 43.190027 -123.346734 359 8993ft 155kts
18-May-19 19:50 43.224938 -123.339628 18 8154ft 151kts
18-May-19 19:51 43.265579 -123.327593 18 7149ft 148kts
18-May-19 19:53 43.311873 -123.313836 17 6000ft 142kts
18-May-19 19:53 43.341388 -123.305217 17 5431ft 123kts
18-May-19 19:54 43.367465 -123.297099 26 5333ft 78kts
18-May-19 19:55 43.393232 -123.289528 16 5345ft 112kts
18-May-19 19:56 43.410935 -123.316692 225 4860ft 126kts
18-May-19 19:57 43.396215 -123.295743 49 4336ft 136kts
18-May-19 19:58 43.423607 -123.261578 31 3563ft 131kts
18-May-19 19:59 43.440319 -123.290089 236 2732ft 124kts
18-May-19 20:00 43.417653 -123.315851 184 1559ft 132kts
18-May-19 20:01 43.412454 -123.283425 54 1553ft 101kts
18-May-19 20:02 43.434657 -123.264793 273 1191ft 96kts
18-May-19 20:03 43.425697 -123.280484 214 586ft 11kts
18-May-19 20:04 43.424177 -123.281514 34 598ft 0kts
18-May-19 20:05 43.424177 -123.281514 34 598ft 0kts
18-May-19 20:06 43.424177 -123.281514 34 598ft 0kts
18-May-19 20:07 43.424178 -123.281514 35 598ft 0kts
18-May-19 20:08 43.424178 -123.281514 35 598ft 0kts
18-May-19 20:09 43.424178 -123.281514 35 598ft 0kts
18-May-19 20:10 43.424178 -123.281514 35 598ft 0kts
18-May-19 20:11 43.424178 -123.281514 35 598ft 0kts
18-May-19 20:12 43.424178 -123.281514 35 598ft 0kts
18-May-19 20:13 43.424179 -123.281513 37 598ft 0kts
18-May-19 20:14 43.424462 -123.281262 32 595ft 19kts
18-May-19 20:15 43.437924 -123.284657 259 1196ft 78kts
18-May-19 20:16 43.422576 -123.302494 260 2046ft 88kts

Navigation Log

Ident Type
Flight plan parsing failed, navigation log unavailable